sensor_id;sensor_type;location;lat;lon;timestamp;P1;durP1;ratioP1;P2;durP2;ratioP2
2021;SDS011;1015;49.756;6.994;2023-05-06T00:02:24;2.40;;;2.20;;
2021;SDS011;1015;49.756;6.994;2023-05-06T00:04:53;2.60;;;2.20;;
2021;SDS011;1015;49.756;6.994;2023-05-06T00:07:22;2.30;;;2.10;;
2021;SDS011;1015;49.756;6.994;2023-05-06T00:09:49;2.40;;;2.20;;
2021;SDS011;1015;49.756;6.994;2023-05-06T00:12:16;2.70;;;2.50;;
2021;SDS011;1015;49.756;6.994;2023-05-06T00:14:43;2.93;;;2.63;;
2021;SDS011;1015;49.756;6.994;2023-05-06T00:17:10;2.37;;;2.03;;
2021;SDS011;1015;49.756;6.994;2023-05-06T00:19:38;2.60;;;2.20;;
2021;SDS011;1015;49.756;6.994;2023-05-06T00:22:05;2.77;;;2.57;;
2021;SDS011;1015;49.756;6.994;2023-05-06T00:24:33;2.37;;;2.17;;
2021;SDS011;1015;49.756;6.994;2023-05-06T00:27:01;3.03;;;2.50;;
2021;SDS011;1015;49.756;6.994;2023-05-06T00:29:28;3.23;;;2.70;;
2021;SDS011;1015;49.756;6.994;2023-05-06T00:31:55;3.53;;;3.00;;
2021;SDS011;1015;49.756;6.994;2023-05-06T00:34:22;5.30;;;3.50;;
2021;SDS011;1015;49.756;6.994;2023-05-06T00:36:49;4.97;;;4.00;;
2021;SDS011;1015;49.756;6.994;2023-05-06T00:39:16;6.07;;;3.70;;
2021;SDS011;1015;49.756;6.994;2023-05-06T00:41:46;6.40;;;4.30;;
2021;SDS011;1015;49.756;6.994;2023-05-06T00:44:13;7.93;;;4.93;;
2021;SDS011;1015;49.756;6.994;2023-05-06T00:46:41;6.50;;;4.93;;
2021;SDS011;1015;49.756;6.994;2023-05-06T00:49:08;6.70;;;4.27;;
2021;SDS011;1015;49.756;6.994;2023-05-06T00:51:37;6.30;;;4.30;;
2021;SDS011;1015;49.756;6.994;2023-05-06T00:54:04;6.43;;;4.30;;
2021;SDS011;1015;49.756;6.994;2023-05-06T00:56:31;6.50;;;4.47;;
2021;SDS011;1015;49.756;6.994;2023-05-06T00:59:00;4.90;;;4.10;;
2021;SDS011;1015;49.756;6.994;2023-05-06T01:01:28;5.90;;;4.33;;
2021;SDS011;1015;49.756;6.994;2023-05-06T01:03:57;5.10;;;4.33;;
2021;SDS011;1015;49.756;6.994;2023-05-06T01:06:25;5.40;;;4.17;;
2021;SDS011;1015;49.756;6.994;2023-05-06T01:08:56;5.87;;;4.47;;
2021;SDS011;1015;49.756;6.994;2023-05-06T01:11:27;4.80;;;3.97;;
2021;SDS011;1015;49.756;6.994;2023-05-06T01:13:57;5.47;;;4.40;;
2021;SDS011;1015;49.756;6.994;2023-05-06T01:16:27;5.13;;;4.17;;
2021;SDS011;1015;49.756;6.994;2023-05-06T01:18:55;6.40;;;4.53;;
2021;SDS011;1015;49.756;6.994;2023-05-06T01:21:23;5.17;;;4.03;;
2021;SDS011;1015;49.756;6.994;2023-05-06T01:24:00;4.40;;;4.00;;
2021;SDS011;1015;49.756;6.994;2023-05-06T01:26:27;5.87;;;4.60;;
2021;SDS011;1015;49.756;6.994;2023-05-06T01:28:55;6.50;;;3.80;;
2021;SDS011;1015;49.756;6.994;2023-05-06T01:31:24;4.17;;;3.77;;
2021;SDS011;1015;49.756;6.994;2023-05-06T01:33:55;4.17;;;3.77;;
2021;SDS011;1015;49.756;6.994;2023-05-06T01:36:26;6.20;;;4.63;;
2021;SDS011;1015;49.756;6.994;2023-05-06T01:38:57;7.07;;;4.50;;
2021;SDS011;1015;49.756;6.994;2023-05-06T01:41:27;5.43;;;4.47;;
2021;SDS011;1015;49.756;6.994;2023-05-06T01:43:56;6.87;;;4.23;;
2021;SDS011;1015;49.756;6.994;2023-05-06T01:46:25;5.20;;;4.60;;
2021;SDS011;1015;49.756;6.994;2023-05-06T01:48:54;7.50;;;5.20;;
2021;SDS011;1015;49.756;6.994;2023-05-06T01:51:22;6.50;;;4.10;;
2021;SDS011;1015;49.756;6.994;2023-05-06T01:53:50;5.03;;;4.30;;
2021;SDS011;1015;49.756;6.994;2023-05-06T01:56:17;4.43;;;3.97;;
2021;SDS011;1015;49.756;6.994;2023-05-06T01:58:46;4.87;;;4.00;;
2021;SDS011;1015;49.756;6.994;2023-05-06T02:01:13;4.10;;;3.77;;
2021;SDS011;1015;49.756;6.994;2023-05-06T02:03:40;4.87;;;3.73;;
2021;SDS011;1015;49.756;6.994;2023-05-06T02:06:07;4.40;;;3.50;;
2021;SDS011;1015;49.756;6.994;2023-05-06T02:08:34;4.10;;;3.70;;
2021;SDS011;1015;49.756;6.994;2023-05-06T02:11:02;4.00;;;3.47;;
2021;SDS011;1015;49.756;6.994;2023-05-06T02:13:29;3.50;;;3.20;;
2021;SDS011;1015;49.756;6.994;2023-05-06T02:15:57;3.90;;;3.50;;
2021;SDS011;1015;49.756;6.994;2023-05-06T02:18:25;3.10;;;2.80;;
2021;SDS011;1015;49.756;6.994;2023-05-06T02:20:52;3.20;;;3.00;;
2021;SDS011;1015;49.756;6.994;2023-05-06T02:23:19;4.20;;;3.80;;
2021;SDS011;1015;49.756;6.994;2023-05-06T02:25:46;7.10;;;4.40;;
2021;SDS011;1015;49.756;6.994;2023-05-06T02:28:14;4.53;;;3.90;;
2021;SDS011;1015;49.756;6.994;2023-05-06T02:30:41;4.33;;;3.93;;
2021;SDS011;1015;49.756;6.994;2023-05-06T02:33:10;4.47;;;3.80;;
2021;SDS011;1015;49.756;6.994;2023-05-06T02:35:37;4.70;;;4.20;;
2021;SDS011;1015;49.756;6.994;2023-05-06T02:38:05;6.10;;;4.23;;
2021;SDS011;1015;49.756;6.994;2023-05-06T02:40:32;6.40;;;5.00;;
2021;SDS011;1015;49.756;6.994;2023-05-06T02:42:59;4.00;;;3.47;;
2021;SDS011;1015;49.756;6.994;2023-05-06T02:45:26;4.80;;;4.10;;
2021;SDS011;1015;49.756;6.994;2023-05-06T02:47:53;5.20;;;4.20;;
2021;SDS011;1015;49.756;6.994;2023-05-06T02:50:22;6.80;;;5.00;;
2021;SDS011;1015;49.756;6.994;2023-05-06T02:52:49;6.80;;;4.70;;
2021;SDS011;1015;49.756;6.994;2023-05-06T02:55:16;7.30;;;4.93;;
2021;SDS011;1015;49.756;6.994;2023-05-06T02:57:44;5.20;;;4.60;;
2021;SDS011;1015;49.756;6.994;2023-05-06T03:00:11;5.70;;;5.03;;
2021;SDS011;1015;49.756;6.994;2023-05-06T03:02:39;6.17;;;4.77;;
2021;SDS011;1015;49.756;6.994;2023-05-06T03:05:07;5.70;;;4.70;;
2021;SDS011;1015;49.756;6.994;2023-05-06T03:07:35;7.37;;;5.03;;
2021;SDS011;1015;49.756;6.994;2023-05-06T03:10:03;4.70;;;4.23;;
2021;SDS011;1015;49.756;6.994;2023-05-06T03:12:30;8.30;;;5.20;;
2021;SDS011;1015;49.756;6.994;2023-05-06T03:14:57;4.67;;;4.27;;
2021;SDS011;1015;49.756;6.994;2023-05-06T03:17:24;5.50;;;4.70;;
2021;SDS011;1015;49.756;6.994;2023-05-06T03:19:52;10.90;;;4.83;;
2021;SDS011;1015;49.756;6.994;2023-05-06T03:22:19;4.73;;;4.20;;
2021;SDS011;1015;49.756;6.994;2023-05-06T03:24:47;5.50;;;4.13;;
2021;SDS011;1015;49.756;6.994;2023-05-06T03:27:14;7.10;;;4.93;;
2021;SDS011;1015;49.756;6.994;2023-05-06T03:29:42;6.60;;;4.50;;
2021;SDS011;1015;49.756;6.994;2023-05-06T03:32:09;5.93;;;4.90;;
2021;SDS011;1015;49.756;6.994;2023-05-06T03:34:36;6.10;;;4.37;;
2021;SDS011;1015;49.756;6.994;2023-05-06T03:37:03;5.13;;;4.47;;
2021;SDS011;1015;49.756;6.994;2023-05-06T03:39:30;5.20;;;4.10;;
2021;SDS011;1015;49.756;6.994;2023-05-06T03:41:59;4.13;;;3.73;;
2021;SDS011;1015;49.756;6.994;2023-05-06T03:44:26;4.60;;;3.73;;
2021;SDS011;1015;49.756;6.994;2023-05-06T03:46:53;5.27;;;3.77;;
2021;SDS011;1015;49.756;6.994;2023-05-06T03:49:21;5.17;;;4.10;;
2021;SDS011;1015;49.756;6.994;2023-05-06T03:51:48;5.30;;;3.83;;
2021;SDS011;1015;49.756;6.994;2023-05-06T03:54:15;5.90;;;4.20;;
2021;SDS011;1015;49.756;6.994;2023-05-06T03:56:42;5.60;;;4.33;;
2021;SDS011;1015;49.756;6.994;2023-05-06T03:59:11;6.00;;;3.83;;
2021;SDS011;1015;49.756;6.994;2023-05-06T04:01:38;6.20;;;4.10;;
2021;SDS011;1015;49.756;6.994;2023-05-06T04:04:06;4.70;;;3.87;;
2021;SDS011;1015;49.756;6.994;2023-05-06T04:06:33;5.77;;;4.27;;
2021;SDS011;1015;49.756;6.994;2023-05-06T04:09:00;5.03;;;3.63;;
2021;SDS011;1015;49.756;6.994;2023-05-06T04:11:28;5.23;;;3.97;;
2021;SDS011;1015;49.756;6.994;2023-05-06T04:13:55;5.03;;;3.87;;
2021;SDS011;1015;49.756;6.994;2023-05-06T04:16:24;4.53;;;3.60;;
2021;SDS011;1015;49.756;6.994;2023-05-06T04:18:51;4.37;;;3.90;;
2021;SDS011;1015;49.756;6.994;2023-05-06T04:21:19;4.13;;;3.73;;
2021;SDS011;1015;49.756;6.994;2023-05-06T04:23:46;6.60;;;4.40;;
2021;SDS011;1015;49.756;6.994;2023-05-06T04:26:14;4.77;;;3.73;;
2021;SDS011;1015;49.756;6.994;2023-05-06T04:28:41;5.03;;;3.80;;
2021;SDS011;1015;49.756;6.994;2023-05-06T04:31:08;4.27;;;3.60;;
2021;SDS011;1015;49.756;6.994;2023-05-06T04:33:37;5.10;;;3.30;;
2021;SDS011;1015;49.756;6.994;2023-05-06T04:36:04;5.00;;;3.37;;
2021;SDS011;1015;49.756;6.994;2023-05-06T04:38:31;4.00;;;3.60;;
2021;SDS011;1015;49.756;6.994;2023-05-06T04:40:59;4.50;;;3.80;;
2021;SDS011;1015;49.756;6.994;2023-05-06T04:43:27;3.73;;;3.40;;
2021;SDS011;1015;49.756;6.994;2023-05-06T04:45:55;4.50;;;3.50;;
2021;SDS011;1015;49.756;6.994;2023-05-06T04:48:22;4.67;;;3.83;;
2021;SDS011;1015;49.756;6.994;2023-05-06T04:50:51;4.00;;;3.70;;
2021;SDS011;1015;49.756;6.994;2023-05-06T04:53:18;4.30;;;3.90;;
2021;SDS011;1015;49.756;6.994;2023-05-06T04:55:45;5.10;;;4.27;;
2021;SDS011;1015;49.756;6.994;2023-05-06T04:58:13;4.20;;;3.33;;
2021;SDS011;1015;49.756;6.994;2023-05-06T05:00:40;5.70;;;3.73;;
2021;SDS011;1015;49.756;6.994;2023-05-06T05:03:07;4.17;;;3.80;;
2021;SDS011;1015;49.756;6.994;2023-05-06T05:05:34;4.73;;;3.50;;
2021;SDS011;1015;49.756;6.994;2023-05-06T05:08:03;5.00;;;3.73;;
2021;SDS011;1015;49.756;6.994;2023-05-06T05:10:30;5.93;;;4.20;;
2021;SDS011;1015;49.756;6.994;2023-05-06T05:12:57;5.77;;;4.33;;
2021;SDS011;1015;49.756;6.994;2023-05-06T05:15:24;6.57;;;5.07;;
2021;SDS011;1015;49.756;6.994;2023-05-06T05:17:52;6.53;;;4.73;;
2021;SDS011;1015;49.756;6.994;2023-05-06T05:20:19;5.83;;;4.33;;
2021;SDS011;1015;49.756;6.994;2023-05-06T05:22:46;5.83;;;4.20;;
2021;SDS011;1015;49.756;6.994;2023-05-06T05:25:15;5.57;;;4.60;;
2021;SDS011;1015;49.756;6.994;2023-05-06T05:27:42;6.60;;;5.00;;
2021;SDS011;1015;49.756;6.994;2023-05-06T05:30:09;6.83;;;5.00;;
2021;SDS011;1015;49.756;6.994;2023-05-06T05:32:36;5.70;;;4.77;;
2021;SDS011;1015;49.756;6.994;2023-05-06T05:35:04;5.40;;;4.17;;
2021;SDS011;1015;49.756;6.994;2023-05-06T05:37:34;4.90;;;4.40;;
2021;SDS011;1015;49.756;6.994;2023-05-06T05:40:01;4.67;;;4.23;;
2021;SDS011;1015;49.756;6.994;2023-05-06T05:42:30;7.67;;;4.37;;
2021;SDS011;1015;49.756;6.994;2023-05-06T05:44:57;4.73;;;4.33;;
2021;SDS011;1015;49.756;6.994;2023-05-06T05:47:24;4.77;;;4.30;;
2021;SDS011;1015;49.756;6.994;2023-05-06T05:49:52;4.40;;;4.00;;
2021;SDS011;1015;49.756;6.994;2023-05-06T05:52:19;5.50;;;4.30;;
2021;SDS011;1015;49.756;6.994;2023-05-06T05:54:46;4.70;;;4.17;;
2021;SDS011;1015;49.756;6.994;2023-05-06T05:57:13;6.03;;;4.63;;
2021;SDS011;1015;49.756;6.994;2023-05-06T05:59:42;4.50;;;4.10;;
2021;SDS011;1015;49.756;6.994;2023-05-06T06:02:09;6.23;;;4.87;;
2021;SDS011;1015;49.756;6.994;2023-05-06T06:04:36;4.13;;;3.73;;
2021;SDS011;1015;49.756;6.994;2023-05-06T06:07:04;4.30;;;3.50;;
2021;SDS011;1015;49.756;6.994;2023-05-06T06:09:31;3.60;;;3.30;;
2021;SDS011;1015;49.756;6.994;2023-05-06T06:11:58;3.30;;;2.70;;
2021;SDS011;1015;49.756;6.994;2023-05-06T06:14:26;4.37;;;3.73;;
2021;SDS011;1015;49.756;6.994;2023-05-06T06:16:54;5.67;;;3.80;;
2021;SDS011;1015;49.756;6.994;2023-05-06T06:19:21;3.90;;;3.43;;
2021;SDS011;1015;49.756;6.994;2023-05-06T06:21:48;3.93;;;3.53;;
2021;SDS011;1015;49.756;6.994;2023-05-06T06:24:16;3.30;;;3.00;;
2021;SDS011;1015;49.756;6.994;2023-05-06T06:26:43;3.30;;;3.00;;
2021;SDS011;1015;49.756;6.994;2023-05-06T06:29:10;4.03;;;3.00;;
2021;SDS011;1015;49.756;6.994;2023-05-06T06:31:37;3.27;;;2.90;;
2021;SDS011;1015;49.756;6.994;2023-05-06T06:34:06;3.17;;;2.70;;
2021;SDS011;1015;49.756;6.994;2023-05-06T06:36:34;5.50;;;3.10;;
2021;SDS011;1015;49.756;6.994;2023-05-06T06:39:04;2.70;;;2.50;;
2021;SDS011;1015;49.756;6.994;2023-05-06T06:41:31;3.70;;;2.60;;
2021;SDS011;1015;49.756;6.994;2023-05-06T06:43:58;3.00;;;2.80;;
2021;SDS011;1015;49.756;6.994;2023-05-06T06:46:25;2.87;;;2.67;;
2021;SDS011;1015;49.756;6.994;2023-05-06T06:48:52;3.20;;;2.43;;
2021;SDS011;1015;49.756;6.994;2023-05-06T06:51:21;2.70;;;2.20;;
2021;SDS011;1015;49.756;6.994;2023-05-06T06:53:48;2.70;;;2.50;;
2021;SDS011;1015;49.756;6.994;2023-05-06T06:56:15;2.30;;;2.10;;
2021;SDS011;1015;49.756;6.994;2023-05-06T06:58:43;2.33;;;2.13;;
2021;SDS011;1015;49.756;6.994;2023-05-06T07:01:10;3.50;;;2.47;;
2021;SDS011;1015;49.756;6.994;2023-05-06T07:03:37;2.50;;;2.10;;
2021;SDS011;1015;49.756;6.994;2023-05-06T07:06:04;2.10;;;1.90;;
2021;SDS011;1015;49.756;6.994;2023-05-06T07:08:33;3.10;;;2.00;;
2021;SDS011;1015;49.756;6.994;2023-05-06T07:11:00;2.27;;;2.07;;
2021;SDS011;1015;49.756;6.994;2023-05-06T07:13:27;1.87;;;1.73;;
2021;SDS011;1015;49.756;6.994;2023-05-06T07:15:54;3.20;;;2.23;;
2021;SDS011;1015;49.756;6.994;2023-05-06T07:18:22;3.43;;;2.03;;
2021;SDS011;1015;49.756;6.994;2023-05-06T07:20:50;3.47;;;2.10;;
2021;SDS011;1015;49.756;6.994;2023-05-06T07:23:17;2.80;;;2.13;;
2021;SDS011;1015;49.756;6.994;2023-05-06T07:25:45;3.70;;;2.40;;
2021;SDS011;1015;49.756;6.994;2023-05-06T07:28:13;4.30;;;2.20;;
2021;SDS011;1015;49.756;6.994;2023-05-06T07:30:40;1.90;;;1.80;;
2021;SDS011;1015;49.756;6.994;2023-05-06T07:33:07;2.13;;;1.90;;
2021;SDS011;1015;49.756;6.994;2023-05-06T07:35:35;1.83;;;1.50;;
2021;SDS011;1015;49.756;6.994;2023-05-06T07:38:02;2.17;;;1.73;;
2021;SDS011;1015;49.756;6.994;2023-05-06T07:40:29;3.10;;;1.70;;
2021;SDS011;1015;49.756;6.994;2023-05-06T07:42:58;3.30;;;1.80;;
2021;SDS011;1015;49.756;6.994;2023-05-06T07:45:25;1.63;;;1.53;;
2021;SDS011;1015;49.756;6.994;2023-05-06T07:47:52;1.57;;;1.40;;
2021;SDS011;1015;49.756;6.994;2023-05-06T07:50:19;3.53;;;1.33;;
2021;SDS011;1015;49.756;6.994;2023-05-06T07:52:47;1.40;;;1.07;;
2021;SDS011;1015;49.756;6.994;2023-05-06T07:55:14;1.90;;;1.37;;
2021;SDS011;1015;49.756;6.994;2023-05-06T07:57:41;9.07;;;1.87;;
2021;SDS011;1015;49.756;6.994;2023-05-06T08:00:10;3.73;;;1.80;;
2021;SDS011;1015;49.756;6.994;2023-05-06T08:02:38;2.07;;;1.60;;
2021;SDS011;1015;49.756;6.994;2023-05-06T08:05:08;3.60;;;1.50;;
2021;SDS011;1015;49.756;6.994;2023-05-06T08:07:35;3.23;;;1.30;;
2021;SDS011;1015;49.756;6.994;2023-05-06T08:10:03;2.37;;;1.20;;
2021;SDS011;1015;49.756;6.994;2023-05-06T08:12:30;1.53;;;1.43;;
2021;SDS011;1015;49.756;6.994;2023-05-06T08:14:58;3.10;;;1.90;;
2021;SDS011;1015;49.756;6.994;2023-05-06T08:17:26;2.60;;;1.60;;
2021;SDS011;1015;49.756;6.994;2023-05-06T08:19:53;3.03;;;1.80;;
2021;SDS011;1015;49.756;6.994;2023-05-06T08:22:21;1.93;;;1.77;;
2021;SDS011;1015;49.756;6.994;2023-05-06T08:24:48;1.50;;;1.40;;
2021;SDS011;1015;49.756;6.994;2023-05-06T08:27:15;1.80;;;1.50;;
2021;SDS011;1015;49.756;6.994;2023-05-06T08:29:42;1.13;;;1.03;;
2021;SDS011;1015;49.756;6.994;2023-05-06T08:32:10;2.20;;;1.13;;
2021;SDS011;1015;49.756;6.994;2023-05-06T08:34:38;1.47;;;1.10;;
2021;SDS011;1015;49.756;6.994;2023-05-06T08:37:06;2.10;;;1.20;;
2021;SDS011;1015;49.756;6.994;2023-05-06T08:39:33;1.63;;;1.27;;
2021;SDS011;1015;49.756;6.994;2023-05-06T08:42:00;1.83;;;1.60;;
2021;SDS011;1015;49.756;6.994;2023-05-06T08:44:29;2.60;;;1.70;;
2021;SDS011;1015;49.756;6.994;2023-05-06T08:46:57;2.93;;;1.67;;
2021;SDS011;1015;49.756;6.994;2023-05-06T08:49:24;1.50;;;1.10;;
2021;SDS011;1015;49.756;6.994;2023-05-06T08:51:53;1.43;;;1.20;;
2021;SDS011;1015;49.756;6.994;2023-05-06T08:54:21;1.60;;;1.40;;
2021;SDS011;1015;49.756;6.994;2023-05-06T08:56:50;1.40;;;1.30;;
2021;SDS011;1015;49.756;6.994;2023-05-06T08:59:18;1.93;;;1.33;;
2021;SDS011;1015;49.756;6.994;2023-05-06T09:01:48;3.13;;;1.30;;
2021;SDS011;1015;49.756;6.994;2023-05-06T09:04:15;1.30;;;1.20;;
2021;SDS011;1015;49.756;6.994;2023-05-06T09:06:43;1.37;;;1.13;;
2021;SDS011;1015;49.756;6.994;2023-05-06T09:09:12;1.10;;;1.00;;
2021;SDS011;1015;49.756;6.994;2023-05-06T09:11:39;1.20;;;1.10;;
2021;SDS011;1015;49.756;6.994;2023-05-06T09:14:07;3.83;;;1.30;;
2021;SDS011;1015;49.756;6.994;2023-05-06T09:16:35;4.50;;;1.30;;
2021;SDS011;1015;49.756;6.994;2023-05-06T09:19:02;1.87;;;1.40;;
2021;SDS011;1015;49.756;6.994;2023-05-06T09:21:32;2.47;;;1.30;;
2021;SDS011;1015;49.756;6.994;2023-05-06T09:24:00;2.00;;;1.27;;
2021;SDS011;1015;49.756;6.994;2023-05-06T09:26:30;1.30;;;1.20;;
2021;SDS011;1015;49.756;6.994;2023-05-06T09:28:57;1.90;;;1.57;;
2021;SDS011;1015;49.756;6.994;2023-05-06T09:31:25;2.60;;;1.27;;
2021;SDS011;1015;49.756;6.994;2023-05-06T09:33:53;1.30;;;1.20;;
2021;SDS011;1015;49.756;6.994;2023-05-06T09:36:21;2.30;;;1.50;;
2021;SDS011;1015;49.756;6.994;2023-05-06T09:38:48;2.20;;;1.50;;
2021;SDS011;1015;49.756;6.994;2023-05-06T09:41:18;1.80;;;1.40;;
2021;SDS011;1015;49.756;6.994;2023-05-06T09:43:48;2.00;;;1.30;;
2021;SDS011;1015;49.756;6.994;2023-05-06T09:46:15;3.80;;;1.50;;
2021;SDS011;1015;49.756;6.994;2023-05-06T09:48:45;1.97;;;1.13;;
2021;SDS011;1015;49.756;6.994;2023-05-06T09:51:13;3.20;;;1.40;;
2021;SDS011;1015;49.756;6.994;2023-05-06T09:53:40;0.97;;;0.97;;
2021;SDS011;1015;49.756;6.994;2023-05-06T09:56:09;2.27;;;1.27;;
2021;SDS011;1015;49.756;6.994;2023-05-06T09:58:37;2.00;;;1.40;;
2021;SDS011;1015;49.756;6.994;2023-05-06T10:01:06;1.77;;;1.30;;
2021;SDS011;1015;49.756;6.994;2023-05-06T10:03:33;1.53;;;1.10;;
2021;SDS011;1015;49.756;6.994;2023-05-06T10:06:01;1.83;;;1.10;;
2021;SDS011;1015;49.756;6.994;2023-05-06T10:08:30;3.40;;;1.40;;
2021;SDS011;1015;49.756;6.994;2023-05-06T10:10:59;36.90;;;2.83;;
2021;SDS011;1015;49.756;6.994;2023-05-06T10:13:26;37.40;;;2.97;;
2021;SDS011;1015;49.756;6.994;2023-05-06T10:15:54;36.47;;;3.10;;
2021;SDS011;1015;49.756;6.994;2023-05-06T10:18:22;36.40;;;3.00;;
2021;SDS011;1015;49.756;6.994;2023-05-06T10:20:52;37.27;;;3.03;;
2021;SDS011;1015;49.756;6.994;2023-05-06T10:23:22;38.33;;;3.70;;
2021;SDS011;1015;49.756;6.994;2023-05-06T10:25:52;38.03;;;4.10;;
2021;SDS011;1015;49.756;6.994;2023-05-06T10:28:20;38.63;;;4.23;;
2021;SDS011;1015;49.756;6.994;2023-05-06T10:30:48;38.57;;;4.70;;
2021;SDS011;1015;49.756;6.994;2023-05-06T10:33:16;39.80;;;5.97;;
2021;SDS011;1015;49.756;6.994;2023-05-06T10:35:46;40.10;;;6.03;;
2021;SDS011;1015;49.756;6.994;2023-05-06T10:38:16;40.73;;;6.40;;
2021;SDS011;1015;49.756;6.994;2023-05-06T10:40:44;39.90;;;6.17;;
2021;SDS011;1015;49.756;6.994;2023-05-06T10:43:22;2.77;;;1.80;;
2021;SDS011;1015;49.756;6.994;2023-05-06T10:46:02;2.40;;;1.83;;
2021;SDS011;1015;49.756;6.994;2023-05-06T10:48:30;2.50;;;1.37;;
2021;SDS011;1015;49.756;6.994;2023-05-06T10:54:00;1.80;;;1.60;;
2021;SDS011;1015;49.756;6.994;2023-05-06T10:56:28;1.27;;;1.17;;
2021;SDS011;1015;49.756;6.994;2023-05-06T10:58:56;1.17;;;1.07;;
2021;SDS011;1015;49.756;6.994;2023-05-06T11:01:25;1.73;;;1.50;;
2021;SDS011;1015;49.756;6.994;2023-05-06T11:03:52;1.33;;;1.23;;
2021;SDS011;1015;49.756;6.994;2023-05-06T11:06:36;2.03;;;1.20;;
2021;SDS011;1015;49.756;6.994;2023-05-06T11:09:05;1.50;;;1.23;;
2021;SDS011;1015;49.756;6.994;2023-05-06T11:11:48;1.37;;;1.27;;
2021;SDS011;1015;49.756;6.994;2023-05-06T11:14:23;1.37;;;1.00;;
2021;SDS011;1015;49.756;6.994;2023-05-06T11:16:51;1.30;;;1.20;;
2021;SDS011;1015;49.756;6.994;2023-05-06T11:19:19;1.40;;;1.10;;
2021;SDS011;1015;49.756;6.994;2023-05-06T11:21:47;1.33;;;0.90;;
2021;SDS011;1015;49.756;6.994;2023-05-06T11:24:20;1.23;;;1.00;;
2021;SDS011;1015;49.756;6.994;2023-05-06T11:26:47;1.37;;;0.90;;
2021;SDS011;1015;49.756;6.994;2023-05-06T11:29:15;1.10;;;1.00;;
2021;SDS011;1015;49.756;6.994;2023-05-06T11:31:43;1.50;;;1.17;;
2021;SDS011;1015;49.756;6.994;2023-05-06T11:34:11;1.20;;;1.07;;
2021;SDS011;1015;49.756;6.994;2023-05-06T11:36:46;1.13;;;0.93;;
2021;SDS011;1015;49.756;6.994;2023-05-06T11:39:13;1.20;;;1.10;;
2021;SDS011;1015;49.756;6.994;2023-05-06T11:41:42;1.90;;;1.10;;
2021;SDS011;1015;49.756;6.994;2023-05-06T11:44:09;1.90;;;1.00;;
2021;SDS011;1015;49.756;6.994;2023-05-06T11:46:38;1.60;;;1.20;;
2021;SDS011;1015;49.756;6.994;2023-05-06T11:49:05;1.43;;;1.33;;
2021;SDS011;1015;49.756;6.994;2023-05-06T11:51:39;1.40;;;1.30;;
2021;SDS011;1015;49.756;6.994;2023-05-06T11:54:06;2.87;;;1.70;;
2021;SDS011;1015;49.756;6.994;2023-05-06T11:56:43;3.23;;;1.90;;
2021;SDS011;1015;49.756;6.994;2023-05-06T11:59:11;3.63;;;2.20;;
2021;SDS011;1015;49.756;6.994;2023-05-06T12:01:39;1.97;;;1.77;;
2021;SDS011;1015;49.756;6.994;2023-05-06T12:04:07;1.40;;;1.30;;
2021;SDS011;1015;49.756;6.994;2023-05-06T12:06:35;7.07;;;2.50;;
2021;SDS011;1015;49.756;6.994;2023-05-06T12:09:02;2.53;;;2.30;;
2021;SDS011;1015;49.756;6.994;2023-05-06T12:11:31;2.57;;;2.00;;
2021;SDS011;1015;49.756;6.994;2023-05-06T12:14:00;2.50;;;1.97;;
2021;SDS011;1015;49.756;6.994;2023-05-06T12:16:27;2.87;;;2.57;;
2021;SDS011;1015;49.756;6.994;2023-05-06T12:18:55;2.17;;;1.90;;
2021;SDS011;1015;49.756;6.994;2023-05-06T12:21:22;2.40;;;2.20;;
2021;SDS011;1015;49.756;6.994;2023-05-06T12:23:50;2.40;;;1.97;;
2021;SDS011;1015;49.756;6.994;2023-05-06T12:26:17;2.00;;;1.87;;
2021;SDS011;1015;49.756;6.994;2023-05-06T12:28:46;2.13;;;1.93;;
2021;SDS011;1015;49.756;6.994;2023-05-06T12:31:18;2.30;;;2.10;;
2021;SDS011;1015;49.756;6.994;2023-05-06T12:33:45;5.80;;;2.50;;
2021;SDS011;1015;49.756;6.994;2023-05-06T12:36:14;2.10;;;1.90;;
2021;SDS011;1015;49.756;6.994;2023-05-06T12:38:50;1.80;;;1.70;;
2021;SDS011;1015;49.756;6.994;2023-05-06T12:41:17;1.60;;;1.50;;
2021;SDS011;1015;49.756;6.994;2023-05-06T12:43:45;2.00;;;1.80;;
2021;SDS011;1015;49.756;6.994;2023-05-06T12:46:13;3.30;;;1.97;;
2021;SDS011;1015;49.756;6.994;2023-05-06T12:48:45;2.10;;;1.90;;
2021;SDS011;1015;49.756;6.994;2023-05-06T12:51:21;2.10;;;2.00;;
2021;SDS011;1015;49.756;6.994;2023-05-06T12:53:48;2.37;;;2.17;;
2021;SDS011;1015;49.756;6.994;2023-05-06T12:56:16;2.90;;;2.27;;
2021;SDS011;1015;49.756;6.994;2023-05-06T12:58:43;3.20;;;2.20;;
2021;SDS011;1015;49.756;6.994;2023-05-06T13:01:10;3.40;;;2.53;;
2021;SDS011;1015;49.756;6.994;2023-05-06T13:03:37;2.87;;;2.60;;
2021;SDS011;1015;49.756;6.994;2023-05-06T13:06:07;2.47;;;2.30;;
2021;SDS011;1015;49.756;6.994;2023-05-06T13:08:34;3.13;;;2.33;;
2021;SDS011;1015;49.756;6.994;2023-05-06T13:11:01;2.63;;;2.40;;
2021;SDS011;1015;49.756;6.994;2023-05-06T13:13:28;2.53;;;2.33;;
2021;SDS011;1015;49.756;6.994;2023-05-06T13:15:55;3.60;;;2.53;;
2021;SDS011;1015;49.756;6.994;2023-05-06T13:18:22;2.80;;;2.13;;
2021;SDS011;1015;49.756;6.994;2023-05-06T13:20:50;2.57;;;2.37;;
2021;SDS011;1015;49.756;6.994;2023-05-06T13:23:18;2.50;;;2.30;;
2021;SDS011;1015;49.756;6.994;2023-05-06T13:25:46;2.80;;;2.50;;
2021;SDS011;1015;49.756;6.994;2023-05-06T13:28:13;2.90;;;2.70;;
2021;SDS011;1015;49.756;6.994;2023-05-06T13:30:40;3.10;;;2.37;;
2021;SDS011;1015;49.756;6.994;2023-05-06T13:33:08;4.23;;;2.70;;
2021;SDS011;1015;49.756;6.994;2023-05-06T13:35:35;3.23;;;2.67;;
2021;SDS011;1015;49.756;6.994;2023-05-06T13:38:02;2.87;;;2.60;;
2021;SDS011;1015;49.756;6.994;2023-05-06T13:40:31;2.90;;;2.60;;
2021;SDS011;1015;49.756;6.994;2023-05-06T13:42:58;4.13;;;2.90;;
2021;SDS011;1015;49.756;6.994;2023-05-06T13:45:25;3.50;;;2.33;;
2021;SDS011;1015;49.756;6.994;2023-05-06T13:47:52;2.63;;;2.43;;
2021;SDS011;1015;49.756;6.994;2023-05-06T13:50:19;2.77;;;2.57;;
2021;SDS011;1015;49.756;6.994;2023-05-06T13:52:47;3.40;;;2.87;;
2021;SDS011;1015;49.756;6.994;2023-05-06T13:55:14;3.20;;;2.83;;
2021;SDS011;1015;49.756;6.994;2023-05-06T13:57:43;3.87;;;2.80;;
2021;SDS011;1015;49.756;6.994;2023-05-06T14:00:10;3.40;;;2.97;;
2021;SDS011;1015;49.756;6.994;2023-05-06T14:02:38;3.10;;;2.80;;
2021;SDS011;1015;49.756;6.994;2023-05-06T14:05:06;3.27;;;2.97;;
2021;SDS011;1015;49.756;6.994;2023-05-06T14:07:34;3.53;;;3.03;;
2021;SDS011;1015;49.756;6.994;2023-05-06T14:10:01;3.60;;;3.20;;
2021;SDS011;1015;49.756;6.994;2023-05-06T14:12:28;3.27;;;2.97;;
2021;SDS011;1015;49.756;6.994;2023-05-06T14:14:57;3.50;;;3.20;;
2021;SDS011;1015;49.756;6.994;2023-05-06T14:17:24;5.17;;;3.53;;
2021;SDS011;1015;49.756;6.994;2023-05-06T14:19:52;3.60;;;3.30;;
2021;SDS011;1015;49.756;6.994;2023-05-06T14:22:19;3.50;;;3.20;;
2021;SDS011;1015;49.756;6.994;2023-05-06T14:24:46;3.13;;;2.83;;
2021;SDS011;1015;49.756;6.994;2023-05-06T14:27:13;3.00;;;2.80;;
2021;SDS011;1015;49.756;6.994;2023-05-06T14:29:40;2.80;;;2.60;;
2021;SDS011;1015;49.756;6.994;2023-05-06T14:32:11;3.67;;;3.10;;
2021;SDS011;1015;49.756;6.994;2023-05-06T14:34:38;3.10;;;2.90;;
2021;SDS011;1015;49.756;6.994;2023-05-06T14:37:05;3.90;;;3.60;;
2021;SDS011;1015;49.756;6.994;2023-05-06T14:39:33;3.43;;;3.07;;
2021;SDS011;1015;49.756;6.994;2023-05-06T14:42:00;3.10;;;2.57;;
2021;SDS011;1015;49.756;6.994;2023-05-06T14:44:27;2.80;;;2.60;;
2021;SDS011;1015;49.756;6.994;2023-05-06T14:46:54;2.80;;;2.50;;
2021;SDS011;1015;49.756;6.994;2023-05-06T14:49:23;2.50;;;2.30;;
2021;SDS011;1015;49.756;6.994;2023-05-06T14:51:50;2.60;;;2.40;;
2021;SDS011;1015;49.756;6.994;2023-05-06T14:54:17;3.30;;;2.23;;
2021;SDS011;1015;49.756;6.994;2023-05-06T14:56:45;2.60;;;2.20;;
2021;SDS011;1015;49.756;6.994;2023-05-06T14:59:13;4.80;;;2.10;;
2021;SDS011;1015;49.756;6.994;2023-05-06T15:01:40;2.70;;;2.33;;
2021;SDS011;1015;49.756;6.994;2023-05-06T15:04:08;4.07;;;2.50;;
2021;SDS011;1015;49.756;6.994;2023-05-06T15:06:36;2.30;;;2.10;;
2021;SDS011;1015;49.756;6.994;2023-05-06T15:09:04;3.00;;;2.67;;
2021;SDS011;1015;49.756;6.994;2023-05-06T15:11:31;2.50;;;2.30;;
2021;SDS011;1015;49.756;6.994;2023-05-06T15:13:58;3.30;;;2.30;;
2021;SDS011;1015;49.756;6.994;2023-05-06T15:16:25;2.80;;;2.50;;
2021;SDS011;1015;49.756;6.994;2023-05-06T15:18:52;2.63;;;2.17;;
2021;SDS011;1015;49.756;6.994;2023-05-06T15:21:19;4.57;;;2.30;;
2021;SDS011;1015;49.756;6.994;2023-05-06T15:23:48;2.23;;;2.03;;